Burbank, Utah
Current Conditions -  °F | °C
As of 1:52 PM on Wednesday 26 Nov 2014 (Local Time) from KMLF Reporting Station
Clear Clear  
Wind Chill: 59°   Ceiling: Unl
Heat Index: 59°   Visibility: 10mi
Dew Point: 27°   Wind: 10mph
Humidity: 29%   Direction: 190°S
Pressure: 30.38"   Gusts: NA
Location:  38.3622°N, 113.404°W
Report Text: KMLF 262052Z AUTO 19009KT 10SM CLR 15/M03 A3038 RMK AO2 SLP281 T01501028 56019 TSNO
Loading
Personal Weather Stations






























Interactive Weather Map New forecast layout! Learn more

10-Day Weather Forecast

Advertisements
Track Severe Weather on mobile